createdAt,value
2018-12-30T00:00:00.262Z,48.05
2018-12-30T00:02:28.650Z,48.06
2018-12-30T00:04:57.303Z,48.18
2018-12-30T00:07:25.944Z,48.08
2018-12-30T00:09:54.326Z,48.13
2018-12-30T00:12:22.696Z,48.09
2018-12-30T00:14:51.075Z,48.10
2018-12-30T00:17:19.716Z,47.88
2018-12-30T00:19:48.101Z,47.89
2018-12-30T00:22:16.472Z,47.88
2018-12-30T00:24:44.838Z,47.95
2018-12-30T00:27:13.218Z,47.93
2018-12-30T00:29:41.585Z,47.79
2018-12-30T00:32:09.971Z,47.91
2018-12-30T00:34:38.611Z,47.92
2018-12-30T00:37:06.995Z,47.96
2018-12-30T00:39:35.366Z,48.00
2018-12-30T00:42:03.751Z,47.93
2018-12-30T00:44:32.130Z,47.87
2018-12-30T00:47:00.531Z,47.88
2018-12-30T00:49:29.178Z,47.87
2018-12-30T00:51:57.563Z,47.93
2018-12-30T00:54:25.939Z,47.92
2018-12-30T00:56:54.325Z,47.92
2018-12-30T00:59:22.797Z,47.92
2018-12-30T01:01:51.179Z,47.80
2018-12-30T01:04:19.547Z,47.69
2018-12-30T01:06:47.932Z,47.79
2018-12-30T01:09:16.296Z,47.92
2018-12-30T01:11:44.678Z,47.83
2018-12-30T01:14:13.047Z,47.86
2018-12-30T01:16:41.426Z,47.80
2018-12-30T01:19:09.799Z,47.95
2018-12-30T01:21:38.182Z,47.71
2018-12-30T01:24:06.548Z,47.85
2018-12-30T01:26:34.933Z,47.79
2018-12-30T01:29:03.306Z,47.74
2018-12-30T01:31:31.968Z,47.72
2018-12-30T01:34:00.352Z,47.81
2018-12-30T01:36:28.719Z,47.87
2018-12-30T01:38:57.105Z,47.78
2018-12-30T01:41:25.471Z,47.80
2018-12-30T01:43:53.850Z,47.67
2018-12-30T01:46:22.219Z,47.76
2018-12-30T01:48:50.602Z,48.04
2018-12-30T01:51:18.968Z,48.04
2018-12-30T01:53:47.357Z,47.79
2018-12-30T01:56:15.755Z,47.71
2018-12-30T01:58:44.513Z,47.78
2018-12-30T02:01:12.879Z,47.60
2018-12-30T02:03:41.270Z,47.73
2018-12-30T02:06:09.930Z,47.73
2018-12-30T02:08:38.315Z,47.71
2018-12-30T02:11:06.682Z,47.63
2018-12-30T02:13:35.883Z,47.72
2018-12-30T02:16:04.250Z,47.79
2018-12-30T02:18:32.630Z,47.68
2018-12-30T02:21:01.003Z,47.71
2018-12-30T02:23:29.648Z,47.53
2018-12-30T02:25:58.016Z,47.64
2018-12-30T02:28:26.396Z,47.82
2018-12-30T02:30:54.771Z,47.68
2018-12-30T02:33:23.679Z,47.58
2018-12-30T02:35:52.281Z,47.63
2018-12-30T02:38:20.830Z,47.71
2018-12-30T02:40:49.206Z,47.72
2018-12-30T02:43:17.573Z,47.72
2018-12-30T02:45:45.945Z,47.71
2018-12-30T02:48:14.330Z,47.70
2018-12-30T02:50:42.979Z,47.67
2018-12-30T02:53:11.356Z,47.71
2018-12-30T02:55:39.726Z,47.57
2018-12-30T02:58:08.117Z,47.62
2018-12-30T03:00:36.484Z,47.58
2018-12-30T03:03:05.136Z,47.66
2018-12-30T03:05:33.496Z,47.61
2018-12-30T03:08:01.880Z,47.59
2018-12-30T03:10:30.249Z,47.65
2018-12-30T03:12:58.620Z,47.61
2018-12-30T03:15:27.282Z,47.69
2018-12-30T03:17:55.654Z,47.62
2018-12-30T03:20:24.052Z,47.63
2018-12-30T03:22:52.423Z,47.64
2018-12-30T03:25:20.807Z,47.63
2018-12-30T03:27:49.169Z,47.51
2018-12-30T03:30:17.545Z,47.55
2018-12-30T03:32:45.914Z,47.53
2018-12-30T03:35:14.294Z,47.57
2018-12-30T03:37:42.663Z,47.56
2018-12-30T03:40:11.039Z,47.58
2018-12-30T03:42:39.409Z,47.58
2018-12-30T03:45:07.786Z,47.58
2018-12-30T03:47:36.158Z,47.66
2018-12-30T03:50:04.778Z,47.64
2018-12-30T03:52:33.141Z,47.60
2018-12-30T03:55:01.797Z,47.70
2018-12-30T03:57:30.170Z,47.59
2018-12-30T03:59:58.545Z,47.62
2018-12-30T04:02:26.914Z,47.56
2018-12-30T04:04:55.295Z,47.62
2018-12-30T04:07:24.341Z,47.55
2018-12-30T04:09:52.714Z,47.62
2018-12-30T04:12:21.081Z,47.57
2018-12-30T04:14:49.455Z,47.49
2018-12-30T04:17:17.831Z,47.61
2018-12-30T04:19:46.206Z,47.61
2018-12-30T04:22:16.913Z,47.60
2018-12-30T04:24:44.684Z,47.54
2018-12-30T04:27:13.050Z,47.53
2018-12-30T04:29:41.434Z,47.65
2018-12-30T04:32:09.804Z,47.63
2018-12-30T04:34:38.186Z,47.65
2018-12-30T04:37:06.565Z,47.56
2018-12-30T04:39:34.934Z,47.50
2018-12-30T04:42:03.318Z,47.58
2018-12-30T04:44:31.683Z,47.44
2018-12-30T04:47:00.062Z,47.66
2018-12-30T04:49:28.438Z,47.56
2018-12-30T04:51:56.816Z,47.57
2018-12-30T04:54:25.457Z,47.60
2018-12-30T04:56:54.693Z,47.64
2018-12-30T04:59:23.060Z,47.57
2018-12-30T05:01:51.438Z,47.62
2018-12-30T05:04:19.902Z,47.61
2018-12-30T05:06:48.263Z,47.60
2018-12-30T05:09:16.629Z,47.62
2018-12-30T05:11:45.011Z,47.59
2018-12-30T05:14:13.386Z,47.51
2018-12-30T05:16:41.771Z,47.59
2018-12-30T05:19:10.141Z,47.30
2018-12-30T05:21:38.519Z,47.52
2018-12-30T05:24:06.897Z,47.46
2018-12-30T05:26:35.275Z,47.65
2018-12-30T05:29:03.648Z,47.48
2018-12-30T05:31:32.023Z,47.58
2018-12-30T05:34:00.389Z,47.50
2018-12-30T05:36:28.768Z,47.50
2018-12-30T05:38:57.140Z,47.47
2018-12-30T05:41:25.522Z,47.58
2018-12-30T05:43:53.887Z,47.43
2018-12-30T05:46:22.263Z,47.44
2018-12-30T05:48:50.874Z,47.50
2018-12-30T05:51:19.273Z,47.40
2018-12-30T05:53:47.641Z,47.43
2018-12-30T05:56:16.017Z,47.44
2018-12-30T05:58:44.389Z,47.50
2018-12-30T06:01:12.766Z,47.51
2018-12-30T06:03:41.145Z,47.50
2018-12-30T06:06:09.524Z,47.40
2018-12-30T06:08:37.928Z,47.47
2018-12-30T06:11:06.266Z,47.44
2018-12-30T06:13:34.649Z,47.43
2018-12-30T06:16:03.015Z,47.42
2018-12-30T06:18:31.442Z,47.41
2018-12-30T06:20:59.769Z,47.49
2018-12-30T06:23:28.157Z,47.58
2018-12-30T06:25:56.528Z,47.45
2018-12-30T06:28:25.351Z,47.50
2018-12-30T06:30:53.727Z,47.50
2018-12-30T06:33:22.107Z,47.51
2018-12-30T06:35:50.475Z,47.48
2018-12-30T06:38:18.850Z,47.46
2018-12-30T06:40:47.212Z,47.43
2018-12-30T06:43:15.586Z,47.45
2018-12-30T06:45:43.957Z,47.45
2018-12-30T06:48:12.333Z,47.42
2018-12-30T06:50:40.708Z,47.43
2018-12-30T06:53:09.089Z,47.46
2018-12-30T06:55:37.467Z,47.46
2018-12-30T06:58:05.840Z,47.46
2018-12-30T07:00:35.535Z,47.49
2018-12-30T07:03:03.969Z,47.56
2018-12-30T07:05:32.337Z,47.52
2018-12-30T07:08:00.715Z,47.42
2018-12-30T07:10:29.082Z,47.50
2018-12-30T07:12:57.467Z,47.46
2018-12-30T07:15:25.833Z,47.50
2018-12-30T07:17:54.211Z,47.50
2018-12-30T07:20:22.578Z,47.44
2018-12-30T07:22:50.958Z,47.44
2018-12-30T07:25:19.325Z,47.39
2018-12-30T07:27:47.695Z,47.48
2018-12-30T07:30:16.073Z,47.40
2018-12-30T07:32:44.440Z,47.50
2018-12-30T07:35:12.819Z,47.16
2018-12-30T07:37:41.192Z,47.16
2018-12-30T07:40:09.569Z,47.43
2018-12-30T07:42:37.937Z,47.40
2018-12-30T07:45:06.458Z,47.47
2018-12-30T07:47:34.822Z,47.39
2018-12-30T07:50:03.200Z,47.40
2018-12-30T07:52:31.569Z,47.35
2018-12-30T07:54:59.954Z,47.44
2018-12-30T07:57:28.319Z,47.42
2018-12-30T07:59:56.712Z,47.39
2018-12-30T08:02:26.059Z,47.31
2018-12-30T08:04:54.432Z,47.42
2018-12-30T08:07:22.803Z,47.40
2018-12-30T08:09:51.183Z,47.34
2018-12-30T08:12:19.555Z,47.30
2018-12-30T08:14:47.937Z,47.19
2018-12-30T08:17:16.304Z,47.23
2018-12-30T08:19:44.679Z,47.21
2018-12-30T08:22:13.045Z,47.36
2018-12-30T08:24:41.459Z,47.23
2018-12-30T08:27:09.827Z,47.30
2018-12-30T08:29:38.209Z,47.34
2018-12-30T08:32:06.584Z,47.39
2018-12-30T08:34:34.947Z,47.30
2018-12-30T08:37:03.320Z,47.30
2018-12-30T08:39:31.694Z,47.20
2018-12-30T08:42:00.067Z,47.28
2018-12-30T08:44:28.585Z,47.29
2018-12-30T08:46:56.954Z,47.29
2018-12-30T08:49:25.327Z,47.52
2018-12-30T08:51:53.707Z,47.66
2018-12-30T08:54:22.071Z,47.58
2018-12-30T08:56:50.450Z,47.63
2018-12-30T08:59:18.821Z,47.63
2018-12-30T09:01:47.198Z,47.61
2018-12-30T09:04:15.568Z,46.79
2018-12-30T09:06:43.948Z,47.72
2018-12-30T09:09:12.321Z,48.06
2018-12-30T09:11:40.702Z,47.79
2018-12-30T09:14:09.073Z,47.96
2018-12-30T09:16:37.452Z,48.22
2018-12-30T09:19:05.823Z,48.12
2018-12-30T09:21:34.203Z,48.13
2018-12-30T09:24:02.569Z,47.35
2018-12-30T09:26:30.954Z,48.43
2018-12-30T09:28:59.325Z,48.73
2018-12-30T09:31:27.699Z,48.57
2018-12-30T09:33:56.124Z,48.75
2018-12-30T09:36:24.503Z,48.60
2018-12-30T09:38:52.878Z,49.03
2018-12-30T09:41:21.247Z,49.20
2018-12-30T09:43:49.621Z,48.80
2018-12-30T09:46:18.071Z,48.65
2018-12-30T09:48:46.599Z,48.44
2018-12-30T09:51:15.056Z,48.28
2018-12-30T09:53:45.251Z,48.28
2018-12-30T09:56:13.751Z,48.63
2018-12-30T09:58:42.126Z,48.66
2018-12-30T10:01:10.596Z,48.48
2018-12-30T10:03:38.959Z,48.44
2018-12-30T10:06:07.341Z,48.19
2018-12-30T10:08:35.785Z,48.01
2018-12-30T10:11:04.164Z,47.33
2018-12-30T10:13:32.528Z,47.30
2018-12-30T10:16:00.906Z,46.82
2018-12-30T10:18:29.360Z,46.42
2018-12-30T10:20:57.728Z,46.34
2018-12-30T10:23:26.104Z,46.21
2018-12-30T10:28:15.486Z,46.30
2018-12-30T10:30:44.125Z,46.30
2018-12-30T10:33:12.505Z,46.34
2018-12-30T10:35:40.876Z,46.41
2018-12-30T10:38:09.251Z,46.47
2018-12-30T10:40:37.620Z,46.49
2018-12-30T10:43:06.072Z,46.54
2018-12-30T10:45:34.441Z,46.50
2018-12-30T10:48:02.886Z,46.53
2018-12-30T10:50:31.262Z,46.61
2018-12-30T10:52:59.727Z,46.58
2018-12-30T10:55:28.084Z,46.60
2018-12-30T10:57:56.745Z,46.64
2018-12-30T11:00:25.331Z,46.62
2018-12-30T11:02:53.671Z,46.63
2018-12-30T11:05:22.038Z,46.58
2018-12-30T11:07:50.446Z,46.59
2018-12-30T11:10:18.820Z,46.67
2018-12-30T11:12:47.198Z,46.67
2018-12-30T11:15:15.638Z,46.71
2018-12-30T11:17:44.019Z,46.59
2018-12-30T11:20:12.389Z,46.64
2018-12-30T11:22:40.971Z,46.67
2018-12-30T11:25:09.411Z,46.71
2018-12-30T11:27:37.865Z,46.71
2018-12-30T11:30:08.578Z,46.70
2018-12-30T11:32:37.305Z,46.66
2018-12-30T11:35:06.049Z,46.65
2018-12-30T11:37:34.426Z,46.69
2018-12-30T11:40:03.072Z,46.70
2018-12-30T11:42:31.506Z,46.74
2018-12-30T11:44:59.936Z,46.71
2018-12-30T11:47:28.623Z,46.86
2018-12-30T11:49:56.998Z,46.81
2018-12-30T11:52:25.437Z,47.01
2018-12-30T11:54:53.819Z,47.11
2018-12-30T11:57:22.191Z,46.82
2018-12-30T11:59:50.694Z,46.72
2018-12-30T12:02:24.070Z,46.69
2018-12-30T12:04:49.234Z,46.69
2018-12-30T12:07:17.602Z,46.72
2018-12-30T12:09:46.077Z,46.79
2018-12-30T12:12:14.442Z,46.80
2018-12-30T12:14:42.824Z,46.78
2018-12-30T12:17:11.200Z,46.86
2018-12-30T12:19:39.657Z,46.89
2018-12-30T12:22:08.019Z,46.90
2018-12-30T12:24:36.517Z,46.95
2018-12-30T12:27:04.957Z,46.89
2018-12-30T12:29:33.408Z,46.79
2018-12-30T12:32:01.778Z,47.05
2018-12-30T12:34:30.305Z,46.78
2018-12-30T12:36:58.673Z,46.94
2018-12-30T12:39:27.049Z,46.95
2018-12-30T12:41:55.499Z,46.95
2018-12-30T12:44:23.994Z,46.93
2018-12-30T12:46:52.447Z,46.92
2018-12-30T12:49:20.826Z,46.94
2018-12-30T12:51:49.239Z,46.69
2018-12-30T12:54:17.859Z,46.53
2018-12-30T12:56:47.528Z,46.95
2018-12-30T12:59:16.794Z,46.58
2018-12-30T13:01:45.392Z,46.49
2018-12-30T13:04:13.770Z,46.42
2018-12-30T13:06:42.149Z,46.44
2018-12-30T13:09:10.532Z,46.41
2018-12-30T13:11:38.910Z,45.92
2018-12-30T13:14:07.282Z,45.92
2018-12-30T13:16:35.657Z,46.42
2018-12-30T13:19:04.028Z,46.45
2018-12-30T13:21:32.402Z,46.23
2018-12-30T13:24:00.846Z,46.45
2018-12-30T13:26:29.226Z,46.36
2018-12-30T13:28:57.595Z,46.71
2018-12-30T13:31:25.986Z,46.81
2018-12-30T13:33:54.348Z,46.99
2018-12-30T13:36:22.966Z,46.82
2018-12-30T13:38:51.329Z,46.68
2018-12-30T13:41:19.779Z,46.66
2018-12-30T13:43:48.148Z,46.61
2018-12-30T13:46:16.529Z,46.60
2018-12-30T13:48:44.894Z,46.72
2018-12-30T13:51:13.276Z,46.79
2018-12-30T13:53:41.645Z,46.66
2018-12-30T13:56:10.094Z,46.73
2018-12-30T13:58:38.464Z,46.68
2018-12-30T14:01:09.530Z,46.75
2018-12-30T14:03:37.900Z,46.72
2018-12-30T14:06:06.280Z,46.79
2018-12-30T14:08:34.645Z,46.87
2018-12-30T14:11:03.028Z,46.77
2018-12-30T14:13:31.394Z,46.95
2018-12-30T14:15:59.770Z,47.00
2018-12-30T14:18:28.159Z,46.99
2018-12-30T14:20:56.539Z,46.90
2018-12-30T14:23:24.913Z,46.87
2018-12-30T14:25:53.298Z,46.95
2018-12-30T14:28:21.666Z,47.00
2018-12-30T14:30:50.141Z,47.22
2018-12-30T14:33:18.510Z,47.33
2018-12-30T14:35:46.887Z,47.07
2018-12-30T14:38:15.260Z,47.01
2018-12-30T14:40:43.773Z,47.00
2018-12-30T14:43:12.215Z,46.95
2018-12-30T14:45:40.587Z,46.99
2018-12-30T14:48:08.964Z,46.98
2018-12-30T14:50:37.330Z,46.81
2018-12-30T14:53:05.717Z,46.98
2018-12-30T14:55:34.083Z,46.99
2018-12-30T14:58:02.462Z,46.85
2018-12-30T15:00:31.471Z,47.08
2018-12-30T15:02:59.845Z,46.90
2018-12-30T15:05:28.219Z,47.04
2018-12-30T15:07:56.597Z,47.15
2018-12-30T15:10:24.967Z,47.42
2018-12-30T15:12:53.346Z,47.42
2018-12-30T15:15:21.788Z,47.36
2018-12-30T15:17:50.164Z,47.19
2018-12-30T15:20:18.584Z,47.24
2018-12-30T15:22:46.913Z,47.18
2018-12-30T15:25:15.284Z,47.04
2018-12-30T15:27:43.657Z,47.13
2018-12-30T15:30:12.029Z,47.24
2018-12-30T15:32:40.411Z,47.08
2018-12-30T15:35:08.773Z,47.23
2018-12-30T15:37:37.154Z,47.20
2018-12-30T15:40:06.197Z,47.14
2018-12-30T15:42:34.582Z,47.24
2018-12-30T15:45:02.957Z,47.62
2018-12-30T15:47:31.851Z,47.62
2018-12-30T15:50:00.267Z,47.38
2018-12-30T15:52:28.614Z,47.47
2018-12-30T15:54:57.117Z,47.47
2018-12-30T15:57:25.495Z,47.44
2018-12-30T15:59:53.860Z,47.50
2018-12-30T16:02:22.228Z,47.48
2018-12-30T16:04:50.610Z,47.38
2018-12-30T16:07:18.975Z,47.57
2018-12-30T16:09:47.370Z,47.59
2018-12-30T16:12:15.742Z,47.60
2018-12-30T16:14:44.127Z,47.66
2018-12-30T16:17:12.503Z,47.63
2018-12-30T16:19:40.903Z,47.48
2018-12-30T16:22:09.280Z,48.32
2018-12-30T16:24:37.683Z,47.75
2018-12-30T16:27:06.058Z,47.72
2018-12-30T16:29:34.450Z,47.93
2018-12-30T16:32:02.827Z,47.78
2018-12-30T16:34:32.234Z,47.56
2018-12-30T16:37:00.614Z,47.15
2018-12-30T16:39:29.005Z,47.70
2018-12-30T16:41:58.012Z,47.99
2018-12-30T16:44:26.477Z,47.58
2018-12-30T16:46:54.865Z,47.91
2018-12-30T16:49:23.270Z,48.42
2018-12-30T16:51:51.649Z,48.96
2018-12-30T16:54:20.308Z,49.73
2018-12-30T16:56:48.699Z,50.84
2018-12-30T16:59:17.086Z,52.21
2018-12-30T17:01:45.460Z,52.85
2018-12-30T17:04:13.850Z,54.96
2018-12-30T17:06:42.233Z,54.86
2018-12-30T17:09:10.651Z,54.47
2018-12-30T17:11:39.027Z,53.78
2018-12-30T17:14:07.417Z,53.04
2018-12-30T17:16:35.901Z,52.55
2018-12-30T17:19:04.266Z,52.25
2018-12-30T17:21:32.646Z,51.79
2018-12-30T17:24:01.032Z,51.32
2018-12-30T17:26:29.409Z,50.78
2018-12-30T17:28:57.798Z,50.43
2018-12-30T17:31:26.183Z,49.95
2018-12-30T17:33:54.588Z,49.59
2018-12-30T17:36:23.148Z,49.30
2018-12-30T17:38:51.524Z,49.00
2018-12-30T17:41:19.936Z,48.74
2018-12-30T17:43:48.333Z,48.36
2018-12-30T17:46:18.358Z,48.40
2018-12-30T17:48:47.010Z,48.13
2018-12-30T17:51:15.397Z,47.76
2018-12-30T17:53:43.778Z,47.82
2018-12-30T17:56:12.167Z,47.90
2018-12-30T17:58:40.548Z,47.72
2018-12-30T18:01:10.495Z,47.37
2018-12-30T18:03:38.864Z,47.38
2018-12-30T18:06:07.387Z,47.25
2018-12-30T18:08:35.764Z,47.03
2018-12-30T18:11:04.211Z,47.13
2018-12-30T18:13:32.998Z,47.14
2018-12-30T18:16:01.430Z,46.81
2018-12-30T18:18:29.746Z,46.66
2018-12-30T18:20:58.131Z,47.23
2018-12-30T18:23:26.498Z,47.34
2018-12-30T18:25:58.631Z,47.87
2018-12-30T18:28:24.982Z,47.38
2018-12-30T18:30:53.380Z,47.49
2018-12-30T18:33:21.747Z,46.94
2018-12-30T18:35:50.200Z,46.98
2018-12-30T18:38:18.499Z,46.58
2018-12-30T18:40:46.890Z,46.30
2018-12-30T18:43:15.584Z,46.21
2018-12-30T18:45:44.031Z,46.22
2018-12-30T18:48:12.405Z,46.00
2018-12-30T18:50:40.786Z,45.82
2018-12-30T18:53:09.163Z,45.83
2018-12-30T18:55:37.617Z,45.68
2018-12-30T18:58:05.994Z,45.66
2018-12-30T19:00:34.373Z,45.51
2018-12-30T19:03:03.641Z,45.44
2018-12-30T19:05:32.007Z,45.38
2018-12-30T19:08:00.386Z,45.25
2018-12-30T19:10:28.761Z,45.20
2018-12-30T19:12:57.206Z,45.10
2018-12-30T19:15:25.693Z,45.07
2018-12-30T19:17:54.075Z,45.08
2018-12-30T19:20:22.447Z,45.03
2018-12-30T19:22:50.826Z,44.90
2018-12-30T19:25:19.199Z,44.91
2018-12-30T19:27:47.657Z,44.90
2018-12-30T19:30:16.241Z,44.88
2018-12-30T19:32:44.631Z,44.79
2018-12-30T19:35:13.001Z,44.78
2018-12-30T19:37:41.380Z,44.63
2018-12-30T19:40:10.785Z,44.69
2018-12-30T19:42:39.200Z,44.66
2018-12-30T19:45:07.745Z,44.70
2018-12-30T19:47:36.292Z,44.64
2018-12-30T19:50:05.966Z,44.63
2018-12-30T19:52:34.360Z,44.62
2018-12-30T19:55:02.739Z,44.69
2018-12-30T19:57:31.114Z,44.57
2018-12-30T19:59:59.481Z,44.64
2018-12-30T20:02:27.869Z,44.58
2018-12-30T20:04:56.241Z,44.60
2018-12-30T20:07:24.626Z,44.57
2018-12-30T20:09:53.067Z,44.57
2018-12-30T20:12:21.448Z,44.63
2018-12-30T20:14:49.910Z,44.66
2018-12-30T20:17:18.292Z,44.63
2018-12-30T20:19:46.657Z,44.68
2018-12-30T20:22:15.026Z,44.69
2018-12-30T20:24:43.408Z,44.69
2018-12-30T20:27:11.776Z,44.72
2018-12-30T20:29:40.161Z,44.74
2018-12-30T20:32:08.535Z,44.74
2018-12-30T20:34:36.915Z,44.81
2018-12-30T20:37:05.286Z,44.94
2018-12-30T20:39:34.392Z,44.94
2018-12-30T20:42:02.808Z,44.83
2018-12-30T20:44:31.194Z,44.88
2018-12-30T20:46:59.623Z,44.93
2018-12-30T20:49:28.008Z,44.95
2018-12-30T20:51:56.382Z,44.96
2018-12-30T20:54:24.760Z,44.85
2018-12-30T20:56:53.131Z,44.95
2018-12-30T20:59:21.510Z,45.08
2018-12-30T21:01:49.883Z,45.22
2018-12-30T21:04:18.264Z,45.28
2018-12-30T21:06:46.710Z,45.29
2018-12-30T21:09:15.158Z,45.36
2018-12-30T21:11:43.534Z,45.38
2018-12-30T21:14:11.978Z,45.38
2018-12-30T21:16:40.388Z,45.19
2018-12-30T21:19:08.758Z,45.21
2018-12-30T21:21:37.125Z,45.40
2018-12-30T21:24:05.587Z,45.66
2018-12-30T21:26:34.756Z,45.73
2018-12-30T21:29:03.136Z,45.94
2018-12-30T21:31:31.575Z,45.96
2018-12-30T21:34:00.095Z,45.89
2018-12-30T21:36:28.469Z,45.83
2018-12-30T21:38:56.848Z,45.84
2018-12-30T21:41:25.217Z,45.94
2018-12-30T21:43:53.590Z,45.87
2018-12-30T21:46:22.038Z,46.08
2018-12-30T21:48:50.417Z,46.11
2018-12-30T21:51:18.788Z,46.12
2018-12-30T21:53:47.156Z,46.20
2018-12-30T21:56:15.544Z,46.26
2018-12-30T21:58:43.913Z,46.29
2018-12-30T22:01:12.295Z,46.42
2018-12-30T22:03:40.730Z,46.46
2018-12-30T22:06:09.326Z,46.57
2018-12-30T22:08:37.695Z,46.47
2018-12-30T22:11:06.075Z,46.52
2018-12-30T22:13:35.122Z,46.59
2018-12-30T22:16:03.524Z,46.56
2018-12-30T22:18:31.898Z,46.59
2018-12-30T22:21:00.429Z,46.63
2018-12-30T22:23:29.039Z,46.68
2018-12-30T22:25:57.422Z,46.68
2018-12-30T22:28:25.794Z,46.75
2018-12-30T22:30:54.179Z,46.76
2018-12-30T22:33:22.849Z,46.83
2018-12-30T22:35:51.237Z,46.86
2018-12-30T22:38:19.612Z,46.92
2018-12-30T22:40:47.991Z,46.92
2018-12-30T22:43:16.355Z,47.02
2018-12-30T22:45:44.734Z,47.08
2018-12-30T22:48:13.107Z,47.05
2018-12-30T22:50:41.493Z,47.08
2018-12-30T22:53:09.866Z,47.06
2018-12-30T22:55:38.244Z,47.13
2018-12-30T22:58:06.661Z,47.09
2018-12-30T23:00:39.568Z,47.23
2018-12-30T23:03:08.006Z,47.24
2018-12-30T23:05:36.850Z,47.18
2018-12-30T23:08:05.290Z,47.33
2018-12-30T23:10:33.800Z,47.36
2018-12-30T23:13:03.304Z,47.34
2018-12-30T23:15:31.675Z,47.36
2018-12-30T23:18:00.060Z,47.42
2018-12-30T23:20:28.570Z,47.41
2018-12-30T23:22:56.946Z,47.38
2018-12-30T23:25:25.319Z,47.44
2018-12-30T23:27:53.710Z,47.50
2018-12-30T23:30:22.075Z,47.55
2018-12-30T23:32:50.456Z,47.54
2018-12-30T23:35:18.846Z,47.62
2018-12-30T23:37:47.221Z,47.67
2018-12-30T23:40:15.590Z,47.71
2018-12-30T23:42:43.970Z,47.79
2018-12-30T23:45:12.345Z,47.75
2018-12-30T23:47:40.863Z,47.90
2018-12-30T23:50:09.397Z,47.90
2018-12-30T23:52:37.771Z,47.99
2018-12-30T23:55:07.262Z,48.00
2018-12-30T23:57:35.649Z,48.02
